sensor_id;sensor_type;location;lat;lon;timestamp;pressure;altitude;pressure_sealevel;temperature;humidity
54389;BME280;40975;50.390;8.640;2023-02-17T00:00:10;99760.41;;;4.56;100.00
54389;BME280;40975;50.390;8.640;2023-02-17T00:02:35;99750.94;;;4.82;100.00
54389;BME280;40975;50.390;8.640;2023-02-17T00:05:01;99747.38;;;4.98;100.00
54389;BME280;40975;50.390;8.640;2023-02-17T00:07:27;99742.06;;;5.12;100.00
54389;BME280;40975;50.390;8.640;2023-02-17T00:09:56;99740.56;;;5.23;100.00
54389;BME280;40975;50.390;8.640;2023-02-17T00:12:21;99735.75;;;5.29;100.00
54389;BME280;40975;50.390;8.640;2023-02-17T00:14:47;99737.50;;;5.43;100.00
54389;BME280;40975;50.390;8.640;2023-02-17T00:17:12;99730.25;;;5.47;100.00
54389;BME280;40975;50.390;8.640;2023-02-17T00:19:38;99726.84;;;5.45;100.00
54389;BME280;40975;50.390;8.640;2023-02-17T00:22:03;99734.47;;;5.50;100.00
54389;BME280;40975;50.390;8.640;2023-02-17T00:24:30;99732.88;;;5.47;100.00
54389;BME280;40975;50.390;8.640;2023-02-17T00:26:56;99738.91;;;5.49;100.00
54389;BME280;40975;50.390;8.640;2023-02-17T00:29:21;99742.91;;;5.55;100.00
54389;BME280;40975;50.390;8.640;2023-02-17T00:31:47;99731.78;;;5.64;100.00
54389;BME280;40975;50.390;8.640;2023-02-17T00:34:12;99738.00;;;5.63;100.00
54389;BME280;40975;50.390;8.640;2023-02-17T00:36:38;99739.59;;;5.66;100.00
54389;BME280;40975;50.390;8.640;2023-02-17T00:39:04;99736.00;;;5.67;100.00
54389;BME280;40975;50.390;8.640;2023-02-17T00:41:30;99736.00;;;5.67;100.00
54389;BME280;40975;50.390;8.640;2023-02-17T00:43:56;99739.38;;;5.69;100.00
54389;BME280;40975;50.390;8.640;2023-02-17T00:46:22;99743.72;;;5.70;100.00
54389;BME280;40975;50.390;8.640;2023-02-17T00:48:50;99744.97;;;5.64;100.00
54389;BME280;40975;50.390;8.640;2023-02-17T00:51:17;99744.97;;;5.64;100.00
54389;BME280;40975;50.390;8.640;2023-02-17T00:53:42;99744.13;;;5.64;100.00
54389;BME280;40975;50.390;8.640;2023-02-17T00:56:08;99745.91;;;5.63;100.00
54389;BME280;40975;50.390;8.640;2023-02-17T00:58:35;99742.22;;;5.66;100.00
54389;BME280;40975;50.390;8.640;2023-02-17T01:01:01;99740.81;;;5.60;100.00
54389;BME280;40975;50.390;8.640;2023-02-17T01:03:26;99745.97;;;5.49;100.00
54389;BME280;40975;50.390;8.640;2023-02-17T01:05:53;99743.06;;;5.39;100.00
54389;BME280;40975;50.390;8.640;2023-02-17T01:08:19;99745.16;;;5.19;100.00
54389;BME280;40975;50.390;8.640;2023-02-17T01:10:45;99746.97;;;5.04;100.00
54389;BME280;40975;50.390;8.640;2023-02-17T01:13:12;99756.56;;;5.05;100.00
54389;BME280;40975;50.390;8.640;2023-02-17T01:15:38;99748.78;;;5.04;100.00
54389;BME280;40975;50.390;8.640;2023-02-17T01:18:04;99747.09;;;5.03;100.00
54389;BME280;40975;50.390;8.640;2023-02-17T01:20:29;99741.81;;;5.03;100.00
54389;BME280;40975;50.390;8.640;2023-02-17T01:22:57;99749.50;;;5.06;100.00
54389;BME280;40975;50.390;8.640;2023-02-17T01:25:22;99727.63;;;5.05;100.00
54389;BME280;40975;50.390;8.640;2023-02-17T01:27:47;99742.47;;;5.06;100.00
54389;BME280;40975;50.390;8.640;2023-02-17T01:30:13;99737.28;;;5.05;100.00
54389;BME280;40975;50.390;8.640;2023-02-17T01:32:38;99730.38;;;5.04;100.00
54389;BME280;40975;50.390;8.640;2023-02-17T01:35:04;99738.53;;;4.99;100.00
54389;BME280;40975;50.390;8.640;2023-02-17T01:37:33;99716.44;;;5.02;100.00
54389;BME280;40975;50.390;8.640;2023-02-17T01:39:59;99715.69;;;5.00;100.00
54389;BME280;40975;50.390;8.640;2023-02-17T01:42:24;99710.31;;;5.01;100.00
54389;BME280;40975;50.390;8.640;2023-02-17T01:47:53;99689.38;;;5.00;100.00
54389;BME280;40975;50.390;8.640;2023-02-17T01:50:24;99677.19;;;4.98;100.00
54389;BME280;40975;50.390;8.640;2023-02-17T01:52:51;99673.94;;;5.22;100.00
54389;BME280;40975;50.390;8.640;2023-02-17T01:55:19;99669.69;;;5.47;100.00
54389;BME280;40975;50.390;8.640;2023-02-17T01:57:48;99664.72;;;5.83;100.00
54389;BME280;40975;50.390;8.640;2023-02-17T02:00:16;99658.44;;;5.98;100.00
54389;BME280;40975;50.390;8.640;2023-02-17T02:02:45;99661.72;;;6.28;100.00
54389;BME280;40975;50.390;8.640;2023-02-17T02:05:13;99653.72;;;6.42;100.00
54389;BME280;40975;50.390;8.640;2023-02-17T02:07:40;99644.00;;;6.43;100.00
54389;BME280;40975;50.390;8.640;2023-02-17T02:10:08;99648.00;;;6.48;100.00
54389;BME280;40975;50.390;8.640;2023-02-17T02:12:36;99645.06;;;6.53;100.00
54389;BME280;40975;50.390;8.640;2023-02-17T02:15:12;99640.41;;;6.57;100.00
54389;BME280;40975;50.390;8.640;2023-02-17T02:18:00;99639.25;;;6.61;100.00
54389;BME280;40975;50.390;8.640;2023-02-17T02:32:03;99631.38;;;6.85;100.00
54389;BME280;40975;50.390;8.640;2023-02-17T02:34:44;99619.00;;;6.85;100.00
54389;BME280;40975;50.390;8.640;2023-02-17T02:37:13;99621.94;;;6.94;100.00
54389;BME280;40975;50.390;8.640;2023-02-17T02:39:43;99609.94;;;6.90;100.00
54389;BME280;40975;50.390;8.640;2023-02-17T02:42:16;99617.63;;;6.93;100.00
54389;BME280;40975;50.390;8.640;2023-02-17T02:44:43;99608.44;;;6.98;100.00
54389;BME280;40975;50.390;8.640;2023-02-17T02:47:44;99598.25;;;7.05;100.00
54389;BME280;40975;50.390;8.640;2023-02-17T02:50:20;99601.91;;;7.15;100.00
54389;BME280;40975;50.390;8.640;2023-02-17T02:56:01;99601.75;;;7.30;100.00
54389;BME280;40975;50.390;8.640;2023-02-17T02:58:39;99598.25;;;7.29;100.00
54389;BME280;40975;50.390;8.640;2023-02-17T03:01:14;99592.88;;;7.31;100.00
54389;BME280;40975;50.390;8.640;2023-02-17T03:03:50;99599.38;;;7.38;100.00
54389;BME280;40975;50.390;8.640;2023-02-17T03:06:28;99595.91;;;7.49;100.00
54389;BME280;40975;50.390;8.640;2023-02-17T03:11:28;99595.25;;;7.70;100.00
54389;BME280;40975;50.390;8.640;2023-02-17T03:14:12;99597.06;;;7.69;100.00
54389;BME280;40975;50.390;8.640;2023-02-17T03:16:39;99598.03;;;7.80;100.00
54389;BME280;40975;50.390;8.640;2023-02-17T03:19:05;99590.34;;;7.76;100.00
54389;BME280;40975;50.390;8.640;2023-02-17T03:21:35;99591.19;;;7.77;100.00
54389;BME280;40975;50.390;8.640;2023-02-17T03:24:02;99603.19;;;7.81;100.00
54389;BME280;40975;50.390;8.640;2023-02-17T03:26:28;99591.56;;;7.84;100.00
54389;BME280;40975;50.390;8.640;2023-02-17T03:28:54;99593.38;;;7.83;100.00
54389;BME280;40975;50.390;8.640;2023-02-17T03:31:20;99596.75;;;7.85;100.00
54389;BME280;40975;50.390;8.640;2023-02-17T03:33:45;99591.22;;;7.88;100.00
54389;BME280;40975;50.390;8.640;2023-02-17T03:36:10;99594.69;;;7.89;100.00
54389;BME280;40975;50.390;8.640;2023-02-17T03:38:36;99594.56;;;7.90;100.00
54389;BME280;40975;50.390;8.640;2023-02-17T03:41:01;99591.81;;;7.92;100.00
54389;BME280;40975;50.390;8.640;2023-02-17T03:43:26;99590.00;;;7.92;100.00
54389;BME280;40975;50.390;8.640;2023-02-17T03:45:52;99590.00;;;7.92;100.00
54389;BME280;40975;50.390;8.640;2023-02-17T03:48:17;99583.03;;;7.91;100.00
54389;BME280;40975;50.390;8.640;2023-02-17T03:50:42;99576.66;;;7.94;100.00
54389;BME280;40975;50.390;8.640;2023-02-17T03:53:10;99586.19;;;7.97;100.00
54389;BME280;40975;50.390;8.640;2023-02-17T03:55:35;99583.78;;;7.93;100.00
54389;BME280;40975;50.390;8.640;2023-02-17T03:58:00;99581.47;;;7.89;100.00
54389;BME280;40975;50.390;8.640;2023-02-17T04:00:25;99586.06;;;7.98;100.00
54389;BME280;40975;50.390;8.640;2023-02-17T04:02:51;99588.09;;;7.94;100.00
54389;BME280;40975;50.390;8.640;2023-02-17T04:05:16;99591.47;;;7.97;100.00
54389;BME280;40975;50.390;8.640;2023-02-17T04:07:41;99591.34;;;7.98;100.00
54389;BME280;40975;50.390;8.640;2023-02-17T04:10:07;99596.63;;;7.98;100.00
54389;BME280;40975;50.390;8.640;2023-02-17T04:12:32;99597.34;;;8.00;100.00
54389;BME280;40975;50.390;8.640;2023-02-17T04:14:58;99595.31;;;8.04;100.00
54389;BME280;40975;50.390;8.640;2023-02-17T04:17:23;99597.13;;;8.03;100.00
54389;BME280;40975;50.390;8.640;2023-02-17T04:19:48;99597.72;;;8.07;100.00
54389;BME280;40975;50.390;8.640;2023-02-17T04:22:14;99597.00;;;8.05;100.00
54389;BME280;40975;50.390;8.640;2023-02-17T04:24:39;99598.09;;;8.02;100.00
54389;BME280;40975;50.390;8.640;2023-02-17T04:27:04;99590.53;;;7.98;100.00
54389;BME280;40975;50.390;8.640;2023-02-17T04:29:31;99590.75;;;7.94;100.00
54389;BME280;40975;50.390;8.640;2023-02-17T04:31:56;99592.44;;;7.96;100.00
54389;BME280;40975;50.390;8.640;2023-02-17T04:34:22;99589.66;;;7.97;100.00
54389;BME280;40975;50.390;8.640;2023-02-17T04:36:47;99597.22;;;8.02;100.00
54389;BME280;40975;50.390;8.640;2023-02-17T04:39:13;99598.19;;;8.01;100.00
54389;BME280;40975;50.390;8.640;2023-02-17T04:41:38;99591.22;;;8.00;100.00
54389;BME280;40975;50.390;8.640;2023-02-17T04:44:03;99587.75;;;7.99;100.00
54389;BME280;40975;50.390;8.640;2023-02-17T04:46:29;99583.53;;;7.97;100.00
54389;BME280;40975;50.390;8.640;2023-02-17T04:48:54;99583.28;;;8.00;100.00
54389;BME280;40975;50.390;8.640;2023-02-17T04:51:19;99584.88;;;8.02;100.00
54389;BME280;40975;50.390;8.640;2023-02-17T04:53:44;99596.41;;;8.01;100.00
54389;BME280;40975;50.390;8.640;2023-02-17T04:56:10;99594.50;;;8.03;100.00
54389;BME280;40975;50.390;8.640;2023-02-17T04:58:35;99593.41;;;8.06;100.00
54389;BME280;40975;50.390;8.640;2023-02-17T05:01:00;99593.28;;;8.07;100.00
54389;BME280;40975;50.390;8.640;2023-02-17T05:03:26;99580.06;;;8.07;100.00
54389;BME280;40975;50.390;8.640;2023-02-17T05:05:51;99585.56;;;8.04;100.00
54389;BME280;40975;50.390;8.640;2023-02-17T05:08:17;99589.81;;;8.07;100.00
54389;BME280;40975;50.390;8.640;2023-02-17T05:10:42;99587.84;;;8.09;100.00
54389;BME280;40975;50.390;8.640;2023-02-17T05:13:07;99587.97;;;8.07;100.00
54389;BME280;40975;50.390;8.640;2023-02-17T05:15:33;99593.41;;;8.06;100.00
54389;BME280;40975;50.390;8.640;2023-02-17T05:17:58;99593.75;;;8.01;100.00
54389;BME280;40975;50.390;8.640;2023-02-17T05:20:23;99598.91;;;8.03;100.00
54389;BME280;40975;50.390;8.640;2023-02-17T05:22:49;99597.34;;;8.00;100.00
54389;BME280;40975;50.390;8.640;2023-02-17T05:25:14;99594.72;;;8.00;100.00
54389;BME280;40975;50.390;8.640;2023-02-17T05:27:40;99604.19;;;7.91;100.00
54389;BME280;40975;50.390;8.640;2023-02-17T05:30:05;99608.75;;;7.89;100.00
54389;BME280;40975;50.390;8.640;2023-02-17T05:32:31;99605.41;;;7.87;100.00
54389;BME280;40975;50.390;8.640;2023-02-17T05:34:56;99607.78;;;7.90;100.00
54389;BME280;40975;50.390;8.640;2023-02-17T05:37:21;99605.88;;;7.92;100.00
54389;BME280;40975;50.390;8.640;2023-02-17T05:39:47;99607.19;;;7.98;100.00
54389;BME280;40975;50.390;8.640;2023-02-17T05:42:12;99605.16;;;8.02;100.00
54389;BME280;40975;50.390;8.640;2023-02-17T05:44:38;99597.84;;;8.05;100.00
54389;BME280;40975;50.390;8.640;2023-02-17T05:47:03;99593.28;;;8.07;100.00
54389;BME280;40975;50.390;8.640;2023-02-17T05:49:29;99591.00;;;8.14;100.00
54389;BME280;40975;50.390;8.640;2023-02-17T05:51:54;99587.41;;;8.15;100.00
54389;BME280;40975;50.390;8.640;2023-02-17T05:54:19;99587.03;;;8.20;100.00
54389;BME280;40975;50.390;8.640;2023-02-17T05:56:45;99592.78;;;8.25;100.00
54389;BME280;40975;50.390;8.640;2023-02-17T05:59:10;99595.22;;;8.28;100.00
54389;BME280;40975;50.390;8.640;2023-02-17T06:01:35;99601.09;;;8.32;100.00
54389;BME280;40975;50.390;8.640;2023-02-17T06:04:01;99590.50;;;8.32;100.00
54389;BME280;40975;50.390;8.640;2023-02-17T06:06:27;99599.19;;;8.34;100.00
54389;BME280;40975;50.390;8.640;2023-02-17T06:08:52;99588.59;;;8.34;100.00
54389;BME280;40975;50.390;8.640;2023-02-17T06:11:17;99582.47;;;8.33;100.00
54389;BME280;40975;50.390;8.640;2023-02-17T06:13:43;99576.09;;;8.36;100.00
54389;BME280;40975;50.390;8.640;2023-02-17T06:16:08;99581.38;;;8.36;100.00
54389;BME280;40975;50.390;8.640;2023-02-17T06:18:33;99582.13;;;8.38;100.00
54389;BME280;40975;50.390;8.640;2023-02-17T06:20:59;99584.63;;;8.39;100.00
54389;BME280;40975;50.390;8.640;2023-02-17T06:23:25;99575.84;;;8.39;100.00
54389;BME280;40975;50.390;8.640;2023-02-17T06:25:50;99582.72;;;8.42;100.00
54389;BME280;40975;50.390;8.640;2023-02-17T06:28:16;99581.63;;;8.44;100.00
54389;BME280;40975;50.390;8.640;2023-02-17T06:30:41;99592.19;;;8.44;100.00
54389;BME280;40975;50.390;8.640;2023-02-17T06:33:07;99588.97;;;8.40;100.00
54389;BME280;40975;50.390;8.640;2023-02-17T06:35:32;99599.03;;;8.47;100.00
54389;BME280;40975;50.390;8.640;2023-02-17T06:37:58;99587.31;;;8.51;100.00
54389;BME280;40975;50.390;8.640;2023-02-17T06:40:23;99591.72;;;8.50;100.00
54389;BME280;40975;50.390;8.640;2023-02-17T06:42:52;99573.81;;;8.54;100.00
54389;BME280;40975;50.390;8.640;2023-02-17T06:45:17;99585.84;;;8.58;100.00
54389;BME280;40975;50.390;8.640;2023-02-17T06:47:42;99597.25;;;8.59;100.00
54389;BME280;40975;50.390;8.640;2023-02-17T06:50:08;99588.50;;;8.58;100.00
54389;BME280;40975;50.390;8.640;2023-02-17T06:52:34;99592.81;;;8.59;100.00
54389;BME280;40975;50.390;8.640;2023-02-17T06:54:59;99597.16;;;8.60;100.00
54389;BME280;40975;50.390;8.640;2023-02-17T06:57:25;99596.41;;;8.69;100.00
54389;BME280;40975;50.390;8.640;2023-02-17T06:59:50;99595.81;;;8.77;100.00
54389;BME280;40975;50.390;8.640;2023-02-17T07:02:16;99595.44;;;8.82;100.00
54389;BME280;40975;50.390;8.640;2023-02-17T07:04:41;99597.34;;;8.80;100.00
54389;BME280;40975;50.390;8.640;2023-02-17T07:07:08;99598.47;;;8.77;100.00
54389;BME280;40975;50.390;8.640;2023-02-17T07:09:33;99601.41;;;8.84;100.00
54389;BME280;40975;50.390;8.640;2023-02-17T07:11:59;99604.69;;;8.88;100.00
54389;BME280;40975;50.390;8.640;2023-02-17T07:14:25;99602.75;;;8.90;100.00
54389;BME280;40975;50.390;8.640;2023-02-17T07:16:51;99602.16;;;8.86;100.00
54389;BME280;40975;50.390;8.640;2023-02-17T07:19:17;99590.22;;;8.92;100.00
54389;BME280;40975;50.390;8.640;2023-02-17T07:21:42;99586.84;;;8.90;100.00
54389;BME280;40975;50.390;8.640;2023-02-17T07:24:08;99593.47;;;8.95;100.00
54389;BME280;40975;50.390;8.640;2023-02-17T07:26:35;99581.81;;;8.98;100.00
54389;BME280;40975;50.390;8.640;2023-02-17T07:29:01;99584.31;;;8.99;100.00
54389;BME280;40975;50.390;8.640;2023-02-17T07:31:27;99578.41;;;9.07;100.00
54389;BME280;40975;50.390;8.640;2023-02-17T07:33:52;99580.09;;;9.08;100.00
54389;BME280;40975;50.390;8.640;2023-02-17T07:36:17;99590.91;;;9.05;100.00
54389;BME280;40975;50.390;8.640;2023-02-17T07:38:43;99583.44;;;9.10;100.00
54389;BME280;40975;50.390;8.640;2023-02-17T07:41:11;99553.50;;;8.98;100.00
54389;BME280;40975;50.390;8.640;2023-02-17T07:43:37;99587.84;;;9.21;100.00
54389;BME280;40975;50.390;8.640;2023-02-17T07:46:03;99587.59;;;9.24;100.00
54389;BME280;40975;50.390;8.640;2023-02-17T07:48:29;99578.56;;;9.27;100.00
54389;BME280;40975;50.390;8.640;2023-02-17T07:50:55;99583.72;;;9.28;100.00
54389;BME280;40975;50.390;8.640;2023-02-17T07:53:20;99571.78;;;9.34;100.00
54389;BME280;40975;50.390;8.640;2023-02-17T07:55:45;99569.47;;;9.41;100.00
54389;BME280;40975;50.390;8.640;2023-02-17T07:58:11;99568.38;;;9.43;100.00
54389;BME280;40975;50.390;8.640;2023-02-17T08:00:36;99558.50;;;9.45;100.00
54389;BME280;40975;50.390;8.640;2023-02-17T08:03:02;99557.97;;;9.52;100.00
54389;BME280;40975;50.390;8.640;2023-02-17T08:05:27;99560.31;;;9.66;100.00
54389;BME280;40975;50.390;8.640;2023-02-17T08:07:52;99556.88;;;9.75;100.00
54389;BME280;40975;50.390;8.640;2023-02-17T08:10:38;99555.50;;;9.81;100.00
54389;BME280;40975;50.390;8.640;2023-02-17T08:13:24;99562.91;;;9.87;100.00
54389;BME280;40975;50.390;8.640;2023-02-17T08:15:50;99551.91;;;9.92;100.00
54389;BME280;40975;50.390;8.640;2023-02-17T08:18:15;99541.47;;;9.90;100.00
54389;BME280;40975;50.390;8.640;2023-02-17T08:20:41;99553.53;;;10.04;100.00
54389;BME280;40975;50.390;8.640;2023-02-17T08:23:06;99576.53;;;10.04;100.00
54389;BME280;40975;50.390;8.640;2023-02-17T08:25:32;99576.81;;;10.01;100.00
54389;BME280;40975;50.390;8.640;2023-02-17T08:27:58;99566.94;;;10.03;100.00
54389;BME280;40975;50.390;8.640;2023-02-17T08:30:24;99556.44;;;10.01;100.00
54389;BME280;40975;50.390;8.640;2023-02-17T08:32:50;99561.22;;;10.07;100.00
54389;BME280;40975;50.390;8.640;2023-02-17T08:35:15;99570.72;;;10.10;100.00
54389;BME280;40975;50.390;8.640;2023-02-17T08:37:43;99566.13;;;10.12;100.00
54389;BME280;40975;50.390;8.640;2023-02-17T08:40:08;99560.13;;;10.20;100.00
54389;BME280;40975;50.390;8.640;2023-02-17T08:42:34;99574.69;;;10.25;100.00
54389;BME280;40975;50.390;8.640;2023-02-17T08:44:59;99574.56;;;10.27;100.00
54389;BME280;40975;50.390;8.640;2023-02-17T08:47:24;99579.19;;;10.35;100.00
54389;BME280;40975;50.390;8.640;2023-02-17T08:49:50;99582.88;;;10.44;100.00
54389;BME280;40975;50.390;8.640;2023-02-17T08:52:15;99584.13;;;10.39;100.00
54389;BME280;40975;50.390;8.640;2023-02-17T08:54:41;99574.03;;;10.33;100.00
54389;BME280;40975;50.390;8.640;2023-02-17T08:57:06;99575.41;;;10.27;100.00
54389;BME280;40975;50.390;8.640;2023-02-17T08:59:31;99585.88;;;10.29;100.00
54389;BME280;40975;50.390;8.640;2023-02-17T09:01:57;99586.47;;;10.33;100.00
54389;BME280;40975;50.390;8.640;2023-02-17T09:04:22;99583.91;;;10.52;100.00
54389;BME280;40975;50.390;8.640;2023-02-17T09:06:50;99584.88;;;10.51;100.00
54389;BME280;40975;50.390;8.640;2023-02-17T09:09:19;99572.00;;;10.47;100.00
54389;BME280;40975;50.390;8.640;2023-02-17T09:11:46;99566.81;;;10.45;100.00
54389;BME280;40975;50.390;8.640;2023-02-17T09:14:12;99569.06;;;10.40;100.00
54389;BME280;40975;50.390;8.640;2023-02-17T09:16:37;99575.50;;;10.47;100.00
54389;BME280;40975;50.390;8.640;2023-02-17T09:19:03;99567.31;;;10.70;100.00
54389;BME280;40975;50.390;8.640;2023-02-17T09:21:28;99567.63;;;10.86;100.00
54389;BME280;40975;50.390;8.640;2023-02-17T09:23:53;99567.78;;;11.14;100.00
54389;BME280;40975;50.390;8.640;2023-02-17T09:26:19;99575.50;;;11.27;100.00
54389;BME280;40975;50.390;8.640;2023-02-17T09:28:45;99570.59;;;11.23;100.00
54389;BME280;40975;50.390;8.640;2023-02-17T09:31:20;99576.31;;;11.28;100.00
54389;BME280;40975;50.390;8.640;2023-02-17T09:33:46;99569.91;;;11.20;100.00
54389;BME280;40975;50.390;8.640;2023-02-17T09:36:14;99574.78;;;11.25;100.00
54389;BME280;40975;50.390;8.640;2023-02-17T09:38:40;99572.69;;;11.29;100.00
54389;BME280;40975;50.390;8.640;2023-02-17T09:41:23;99574.06;;;11.13;100.00
54389;BME280;40975;50.390;8.640;2023-02-17T09:43:51;99590.44;;;11.09;100.00
54389;BME280;40975;50.390;8.640;2023-02-17T09:46:23;99582.03;;;11.03;100.00
54389;BME280;40975;50.390;8.640;2023-02-17T09:48:53;99575.88;;;11.03;100.00
54389;BME280;40975;50.390;8.640;2023-02-17T09:51:34;99584.81;;;10.92;100.00
54389;BME280;40975;50.390;8.640;2023-02-17T09:54:05;99575.31;;;10.99;100.00
54389;BME280;40975;50.390;8.640;2023-02-17T09:56:37;99574.22;;;11.02;100.00
54389;BME280;40975;50.390;8.640;2023-02-17T09:59:13;99580.78;;;11.17;100.00
54389;BME280;40975;50.390;8.640;2023-02-17T10:01:40;99583.03;;;11.22;100.00
54389;BME280;40975;50.390;8.640;2023-02-17T10:04:22;99573.94;;;11.44;100.00
54389;BME280;40975;50.390;8.640;2023-02-17T10:06:53;99572.25;;;11.53;100.00
54389;BME280;40975;50.390;8.640;2023-02-17T10:09:33;99573.69;;;11.38;100.00
54389;BME280;40975;50.390;8.640;2023-02-17T10:12:09;99569.03;;;11.59;100.00
54389;BME280;40975;50.390;8.640;2023-02-17T10:14:48;99577.00;;;11.59;100.00
54389;BME280;40975;50.390;8.640;2023-02-17T10:20:19;99582.28;;;11.89;100.00
54389;BME280;40975;50.390;8.640;2023-02-17T10:22:51;99582.44;;;11.87;100.00
54389;BME280;40975;50.390;8.640;2023-02-17T10:28:49;99584.13;;;11.78;100.00
54389;BME280;40975;50.390;8.640;2023-02-17T10:31:42;99587.56;;;12.08;100.00
54389;BME280;40975;50.390;8.640;2023-02-17T10:39:36;99574.06;;;12.57;100.00
54389;BME280;40975;50.390;8.640;2023-02-17T10:42:21;99568.28;;;12.62;100.00
54389;BME280;40975;50.390;8.640;2023-02-17T10:44:50;99589.34;;;13.01;100.00
54389;BME280;40975;50.390;8.640;2023-02-17T10:47:18;99582.03;;;13.21;100.00
54389;BME280;40975;50.390;8.640;2023-02-17T10:49:49;99578.31;;;13.32;100.00
54389;BME280;40975;50.390;8.640;2023-02-17T10:52:20;99588.44;;;13.65;100.00
54389;BME280;40975;50.390;8.640;2023-02-17T10:54:56;99588.81;;;13.70;100.00
54389;BME280;40975;50.390;8.640;2023-02-17T10:57:27;99578.06;;;13.62;100.00
54389;BME280;40975;50.390;8.640;2023-02-17T10:59:56;99580.47;;;13.47;100.00
54389;BME280;40975;50.390;8.640;2023-02-17T11:02:39;99582.81;;;13.32;100.00
54389;BME280;40975;50.390;8.640;2023-02-17T11:05:06;99580.81;;;13.16;100.00
54389;BME280;40975;50.390;8.640;2023-02-17T11:07:33;99579.69;;;13.36;100.00
54389;BME280;40975;50.390;8.640;2023-02-17T11:10:00;99588.97;;;13.32;100.00
54389;BME280;40975;50.390;8.640;2023-02-17T11:12:40;99594.34;;;13.04;100.00
54389;BME280;40975;50.390;8.640;2023-02-17T11:15:18;99583.91;;;12.93;100.00
54389;BME280;40975;50.390;8.640;2023-02-17T11:17:45;99581.06;;;13.22;100.00
54389;BME280;40975;50.390;8.640;2023-02-17T11:22:45;99584.63;;;13.67;100.00
54389;BME280;40975;50.390;8.640;2023-02-17T11:25:24;99580.38;;;13.57;100.00
54389;BME280;40975;50.390;8.640;2023-02-17T11:27:55;99577.28;;;13.43;100.00
54389;BME280;40975;50.390;8.640;2023-02-17T11:30:21;99574.63;;;13.33;100.00
54389;BME280;40975;50.390;8.640;2023-02-17T11:32:47;99580.88;;;13.24;100.00
54389;BME280;40975;50.390;8.640;2023-02-17T11:35:41;99576.53;;;13.23;100.00
54389;BME280;40975;50.390;8.640;2023-02-17T11:38:22;99572.81;;;13.16;100.00
54389;BME280;40975;50.390;8.640;2023-02-17T11:40:58;99569.63;;;13.12;100.00
54389;BME280;40975;50.390;8.640;2023-02-17T11:43:25;99564.38;;;13.20;100.00
54389;BME280;40975;50.390;8.640;2023-02-17T11:51:54;99560.19;;;12.82;100.00
54389;BME280;40975;50.390;8.640;2023-02-17T11:54:35;99564.41;;;13.02;100.00
54389;BME280;40975;50.390;8.640;2023-02-17T12:02:44;99544.78;;;13.30;100.00
54389;BME280;40975;50.390;8.640;2023-02-17T12:05:25;99546.63;;;13.29;100.00
54389;BME280;40975;50.390;8.640;2023-02-17T12:08:20;99544.13;;;13.46;100.00
54389;BME280;40975;50.390;8.640;2023-02-17T12:11:16;99531.25;;;13.41;100.00
54389;BME280;40975;50.390;8.640;2023-02-17T12:17:01;99513.56;;;13.58;100.00
54389;BME280;40975;50.390;8.640;2023-02-17T12:22:22;99496.69;;;13.31;100.00
54389;BME280;40975;50.390;8.640;2023-02-17T12:25:16;99505.75;;;13.20;100.00
54389;BME280;40975;50.390;8.640;2023-02-17T12:30:33;99510.72;;;13.15;100.00
54389;BME280;40975;50.390;8.640;2023-02-17T12:35:49;99508.88;;;13.16;100.00
54389;BME280;40975;50.390;8.640;2023-02-17T12:38:20;99515.56;;;13.02;100.00
54389;BME280;40975;50.390;8.640;2023-02-17T12:41:04;99516.63;;;13.09;100.00
54389;BME280;40975;50.390;8.640;2023-02-17T12:43:48;99511.75;;;13.04;100.00
54389;BME280;40975;50.390;8.640;2023-02-17T12:46:26;99504.00;;;13.11;100.00
54389;BME280;40975;50.390;8.640;2023-02-17T12:49:00;99500.00;;;13.33;100.00
54389;BME280;40975;50.390;8.640;2023-02-17T12:51:30;99482.59;;;13.21;100.00
54389;BME280;40975;50.390;8.640;2023-02-17T12:58:58;99497.47;;;13.05;100.00
54389;BME280;40975;50.390;8.640;2023-02-17T13:01:30;99504.41;;;12.98;100.00
54389;BME280;40975;50.390;8.640;2023-02-17T13:03:59;99489.03;;;12.92;100.00
54389;BME280;40975;50.390;8.640;2023-02-17T13:06:37;99479.81;;;12.86;100.00
54389;BME280;40975;50.390;8.640;2023-02-17T13:11:42;99495.94;;;12.85;100.00
54389;BME280;40975;50.390;8.640;2023-02-17T13:14:23;99497.69;;;12.76;100.00
54389;BME280;40975;50.390;8.640;2023-02-17T13:16:49;99486.94;;;12.68;100.00
54389;BME280;40975;50.390;8.640;2023-02-17T13:19:14;99492.13;;;12.69;100.00
54389;BME280;40975;50.390;8.640;2023-02-17T13:21:54;99471.53;;;12.71;100.00
54389;BME280;40975;50.390;8.640;2023-02-17T13:24:49;99469.84;;;12.70;100.00
54389;BME280;40975;50.390;8.640;2023-02-17T13:27:31;99476.16;;;12.69;100.00
54389;BME280;40975;50.390;8.640;2023-02-17T13:29:59;99479.72;;;12.78;100.00
54389;BME280;40975;50.390;8.640;2023-02-17T13:32:31;99470.38;;;12.92;100.00
54389;BME280;40975;50.390;8.640;2023-02-17T13:39:58;99457.94;;;13.19;100.00
54389;BME280;40975;50.390;8.640;2023-02-17T13:42:50;99462.97;;;13.22;100.00
54389;BME280;40975;50.390;8.640;2023-02-17T13:47:45;99444.50;;;13.29;100.00
54389;BME280;40975;50.390;8.640;2023-02-17T13:50:30;99450.75;;;13.19;100.00
54389;BME280;40975;50.390;8.640;2023-02-17T13:52:56;99445.94;;;13.23;100.00
54389;BME280;40975;50.390;8.640;2023-02-17T13:55:22;99449.22;;;13.35;100.00
54389;BME280;40975;50.390;8.640;2023-02-17T13:57:56;99441.88;;;13.55;100.00
54389;BME280;40975;50.390;8.640;2023-02-17T14:00:25;99435.03;;;13.34;100.00
54389;BME280;40975;50.390;8.640;2023-02-17T14:02:53;99423.56;;;13.34;100.00
54389;BME280;40975;50.390;8.640;2023-02-17T14:05:25;99431.47;;;13.44;100.00
54389;BME280;40975;50.390;8.640;2023-02-17T14:07:54;99421.56;;;13.36;100.00
54389;BME280;40975;50.390;8.640;2023-02-17T14:10:24;99429.25;;;13.39;100.00
54389;BME280;40975;50.390;8.640;2023-02-17T14:12:50;99425.06;;;13.36;100.00
54389;BME280;40975;50.390;8.640;2023-02-17T14:15:25;99431.03;;;13.30;100.00